Time;durP1;ratioP1;P1;durP2;ratioP2;P2;SDS_P1;SDS_P2;PMS_P1;PMS_P2;Temp;Humidity;BMP_temperature;BMP_pressure;BME280_temperature;BME280_humidity;BME280_pressure;Samples;Min_cycle;Max_cycle;Signal;HPM_P1;HPM_P2
2023/11/01 00:02:25;;;;;;;11.18;4.05;;;;;;;;;;6240660;28;20050;-69
2023/11/01 00:05:27;;;;;;;9.70;4.80;;;;;;;;;;6239806;28;20207;-70
2023/11/01 00:08:29;;;;;;;6.80;4.82;;;;;;;;;;6239901;28;20048;-69
2023/11/01 00:11:31;;;;;;;8.10;3.38;;;;;;;;;;6239986;28;20049;-69
2023/11/01 00:14:33;;;;;;;7.25;3.92;;;;;;;;;;6239971;28;20049;-69
2023/11/01 00:17:35;;;;;;;11.65;5.22;;;;;;;;;;6237652;28;20054;-69
2023/11/01 00:20:37;;;;;;;5.28;4.47;;;;;;;;;;6239755;28;20053;-68
2023/11/01 00:23:39;;;;;;;7.30;5.35;;;;;;;;;;6239869;28;20184;-69
2023/11/01 00:26:41;;;;;;;5.85;3.38;;;;;;;;;;6239369;28;20203;-69
2023/11/01 00:29:43;;;;;;;8.65;3.45;;;;;;;;;;6237692;28;20419;-69
2023/11/01 00:32:46;;;;;;;8.82;5.85;;;;;;;;;;6240039;28;20057;-69
2023/11/01 00:35:48;;;;;;;8.30;5.45;;;;;;;;;;6217561;28;20049;-70
2023/11/01 00:38:50;;;;;;;9.13;4.63;;;;;;;;;;6239689;28;20057;-70
2023/11/01 00:41:52;;;;;;;7.78;5.60;;;;;;;;;;6240291;28;20068;-70
2023/11/01 00:44:54;;;;;;;8.45;5.20;;;;;;;;;;6230589;28;20037;-70
2023/11/01 00:47:56;;;;;;;6.00;4.15;;;;;;;;;;6238204;28;20073;-70
2023/11/01 00:50:58;;;;;;;8.68;3.83;;;;;;;;;;6239313;28;20119;-70
2023/11/01 00:54:00;;;;;;;9.07;5.07;;;;;;;;;;6240279;28;20053;-70
2023/11/01 00:57:02;;;;;;;7.95;5.30;;;;;;;;;;6238948;28;20312;-70
2023/11/01 01:00:06;;;;;;;9.13;5.00;;;;;;;;;;6235588;28;20124;-70
2023/11/01 01:03:10;;;;;;;8.15;6.00;;;;;;;;;;6239051;28;20087;-70
2023/11/01 01:06:12;;;;;;;7.45;5.28;;;;;;;;;;6220281;28;20041;-69
2023/11/01 01:09:14;;;;;;;6.80;4.35;;;;;;;;;;6238579;28;20435;-70
2023/11/01 01:12:16;;;;;;;7.85;5.97;;;;;;;;;;6237621;28;20053;-70
2023/11/01 01:15:18;;;;;;;9.07;3.70;;;;;;;;;;6238105;28;20122;-70
2023/11/01 01:18:21;;;;;;;8.82;4.18;;;;;;;;;;6238043;28;20553;-69
2023/11/01 01:21:23;;;;;;;9.23;4.95;;;;;;;;;;6237942;28;20057;-70
2023/11/01 01:24:26;;;;;;;5.95;4.82;;;;;;;;;;6237788;28;20046;-70
2023/11/01 01:27:28;;;;;;;13.27;5.55;;;;;;;;;;6236576;28;20098;-71
2023/11/01 01:30:30;;;;;;;8.52;5.60;;;;;;;;;;6236049;28;20053;-70
2023/11/01 01:33:32;;;;;;;8.75;5.78;;;;;;;;;;6238532;28;20064;-70
2023/11/01 01:36:35;;;;;;;5.68;4.15;;;;;;;;;;6219216;28;20049;-70
2023/11/01 01:39:36;;;;;;;12.68;5.95;;;;;;;;;;6235572;28;20049;-69
2023/11/01 01:42:38;;;;;;;10.23;5.35;;;;;;;;;;6236168;28;20433;-69
2023/11/01 01:45:40;;;;;;;6.35;4.07;;;;;;;;;;6220986;28;20155;-70
2023/11/01 01:48:44;;;;;;;6.63;5.30;;;;;;;;;;6220106;28;20045;-70
2023/11/01 01:51:46;;;;;;;8.27;5.07;;;;;;;;;;6217315;28;20049;-70
2023/11/01 01:54:49;;;;;;;5.18;4.18;;;;;;;;;;6220883;28;20048;-70
2023/11/01 01:57:51;;;;;;;10.10;5.10;;;;;;;;;;6209101;28;20080;-69
2023/11/01 02:00:54;;;;;;;9.32;5.85;;;;;;;;;;6219769;28;20493;-70
2023/11/01 02:03:56;;;;;;;8.52;5.15;;;;;;;;;;6216700;28;20049;-70
2023/11/01 02:06:58;;;;;;;7.30;4.85;;;;;;;;;;6235880;28;20034;-70
2023/11/01 02:10:01;;;;;;;11.40;7.50;;;;;;;;;;6219612;28;20057;-69
2023/11/01 02:13:14;;;;;;;10.82;5.40;;;;;;;;;;6218581;28;20774;-70
2023/11/01 02:16:16;;;;;;;8.98;4.75;;;;;;;;;;6219344;28;20558;-70
2023/11/01 02:19:19;;;;;;;7.65;4.80;;;;;;;;;;6237504;28;20184;-70
2023/11/01 02:22:20;;;;;;;6.00;5.15;;;;;;;;;;6236921;28;20052;-68
2023/11/01 02:25:23;;;;;;;7.43;6.25;;;;;;;;;;6219180;28;20623;-69
2023/11/01 02:28:25;;;;;;;9.10;3.50;;;;;;;;;;6220150;28;20136;-69
2023/11/01 02:31:27;;;;;;;6.90;2.85;;;;;;;;;;6237758;28;20494;-69
2023/11/01 02:34:29;;;;;;;8.02;5.63;;;;;;;;;;6238067;28;20083;-69
2023/11/01 02:37:31;;;;;;;8.88;4.68;;;;;;;;;;6236559;28;20045;-69
2023/11/01 02:40:35;;;;;;;9.85;3.35;;;;;;;;;;6236467;28;20636;-70
2023/11/01 02:43:37;;;;;;;12.30;7.32;;;;;;;;;;6236340;28;20504;-69
2023/11/01 02:46:39;;;;;;;7.55;5.65;;;;;;;;;;6214562;28;20049;-69
2023/11/01 02:49:41;;;;;;;7.38;6.18;;;;;;;;;;6236424;28;20053;-69
2023/11/01 02:52:43;;;;;;;7.03;5.65;;;;;;;;;;6235088;28;20057;-68
2023/11/01 02:55:45;;;;;;;30.10;17.73;;;;;;;;;;6226887;28;20045;-69
2023/11/01 02:58:47;;;;;;;36.80;19.20;;;;;;;;;;6231581;28;20128;-68
2023/11/01 03:01:50;;;;;;;12.43;7.50;;;;;;;;;;6236689;28;20072;-69
2023/11/01 03:04:52;;;;;;;8.30;5.32;;;;;;;;;;6235403;28;20658;-68
2023/11/01 03:07:54;;;;;;;8.77;5.07;;;;;;;;;;6201664;28;20045;-69
2023/11/01 03:10:56;;;;;;;8.45;7.65;;;;;;;;;;6235967;28;20053;-68
2023/11/01 03:13:58;;;;;;;11.48;5.22;;;;;;;;;;6235816;28;20558;-68
2023/11/01 03:17:00;;;;;;;10.13;5.30;;;;;;;;;;6230598;28;20045;-69
2023/11/01 03:20:03;;;;;;;12.05;6.50;;;;;;;;;;6235015;28;20714;-70
2023/11/01 03:23:05;;;;;;;6.75;4.18;;;;;;;;;;6215721;28;20122;-69
2023/11/01 03:26:08;;;;;;;7.82;5.65;;;;;;;;;;6210023;28;20544;-70
2023/11/01 03:29:10;;;;;;;7.15;5.93;;;;;;;;;;6235883;28;20061;-70
2023/11/01 03:32:12;;;;;;;7.45;5.95;;;;;;;;;;6218105;28;20155;-70
2023/11/01 03:35:14;;;;;;;12.95;6.32;;;;;;;;;;6236319;28;20056;-70
2023/11/01 03:38:16;;;;;;;8.40;5.90;;;;;;;;;;6235394;28;20049;-70
2023/11/01 03:41:18;;;;;;;9.48;6.97;;;;;;;;;;6236570;28;20453;-69
2023/11/01 03:44:20;;;;;;;8.65;6.25;;;;;;;;;;6235621;28;20167;-69
2023/11/01 03:47:23;;;;;;;9.93;6.65;;;;;;;;;;6218288;28;20042;-69
2023/11/01 03:50:26;;;;;;;8.63;6.10;;;;;;;;;;6214343;28;20052;-69
2023/11/01 03:53:28;;;;;;;13.07;9.13;;;;;;;;;;6217707;28;20076;-69
2023/11/01 03:56:30;;;;;;;8.23;6.05;;;;;;;;;;6235508;28;20049;-69
2023/11/01 03:59:32;;;;;;;9.02;6.88;;;;;;;;;;6228034;28;20049;-69
2023/11/01 04:02:35;;;;;;;7.13;3.42;;;;;;;;;;6235461;28;20496;-69
2023/11/01 04:05:37;;;;;;;9.38;6.82;;;;;;;;;;6235160;28;20052;-69
2023/11/01 04:08:39;;;;;;;7.22;6.53;;;;;;;;;;6235328;28;20049;-69
2023/11/01 04:11:41;;;;;;;10.75;6.35;;;;;;;;;;6209990;28;20053;-69
2023/11/01 04:14:43;;;;;;;10.68;6.20;;;;;;;;;;6235491;28;20053;-69
2023/11/01 04:17:45;;;;;;;9.07;5.57;;;;;;;;;;6234984;28;20049;-68
2023/11/01 04:20:47;;;;;;;9.23;7.20;;;;;;;;;;6235076;28;20049;-68
2023/11/01 04:23:51;;;;;;;49.38;30.75;;;;;;;;;;6234819;28;20057;-69
2023/11/01 04:26:54;;;;;;;54.78;31.98;;;;;;;;;;6235903;28;20038;-69
2023/11/01 04:29:55;;;;;;;35.75;22.38;;;;;;;;;;6217314;28;20042;-69
2023/11/01 04:32:58;;;;;;;21.33;13.73;;;;;;;;;;6234943;28;20053;-69
2023/11/01 04:36:00;;;;;;;16.65;7.55;;;;;;;;;;6235822;28;20136;-68
2023/11/01 04:39:03;;;;;;;11.02;7.55;;;;;;;;;;6239188;28;20103;-68
2023/11/01 04:42:06;;;;;;;10.80;7.30;;;;;;;;;;6239207;28;20136;-68
2023/11/01 04:45:09;;;;;;;12.95;7.75;;;;;;;;;;6239880;28;20046;-69
2023/11/01 04:48:11;;;;;;;11.63;8.10;;;;;;;;;;6238956;28;20103;-68
2023/11/01 04:51:13;;;;;;;11.30;7.28;;;;;;;;;;6239027;28;20545;-68
2023/11/01 04:54:16;;;;;;;8.20;6.60;;;;;;;;;;6218105;28;20055;-69
2023/11/01 04:57:18;;;;;;;14.05;7.82;;;;;;;;;;6239210;28;20051;-69
2023/11/01 05:00:20;;;;;;;12.32;7.43;;;;;;;;;;6238447;28;20050;-68
2023/11/01 05:03:22;;;;;;;9.70;6.57;;;;;;;;;;6238267;28;20051;-68
2023/11/01 05:06:26;;;;;;;10.48;6.82;;;;;;;;;;6239467;28;20091;-69
2023/11/01 05:09:28;;;;;;;8.93;5.05;;;;;;;;;;6238374;28;20613;-69
2023/11/01 05:12:30;;;;;;;10.60;7.60;;;;;;;;;;6238906;28;20049;-68
2023/11/01 05:15:36;;;;;;;8.10;6.70;;;;;;;;;;6237735;28;20064;-68
2023/11/01 05:18:38;;;;;;;11.90;8.07;;;;;;;;;;6220353;28;20042;-69
2023/11/01 05:21:42;;;;;;;11.18;7.88;;;;;;;;;;6251590;28;20708;-69
2023/11/01 05:24:49;;;;;;;11.90;8.75;;;;;;;;;;6221048;28;20781;-69
2023/11/01 05:27:52;;;;;;;12.35;7.03;;;;;;;;;;6238738;28;20049;-73
2023/11/01 05:30:54;;;;;;;13.63;8.80;;;;;;;;;;6233639;28;20165;-69
2023/11/01 05:33:57;;;;;;;15.02;8.68;;;;;;;;;;6238582;28;20045;-68
2023/11/01 05:36:59;;;;;;;11.82;7.45;;;;;;;;;;6242448;28;20533;-65
2023/11/01 05:40:01;;;;;;;12.02;7.35;;;;;;;;;;6237250;28;20561;-67
2023/11/01 05:43:04;;;;;;;14.40;8.20;;;;;;;;;;6235180;28;20544;-66
2023/11/01 05:46:07;;;;;;;10.18;8.02;;;;;;;;;;6236313;28;20188;-66
2023/11/01 05:49:09;;;;;;;11.20;7.78;;;;;;;;;;6233945;28;20128;-65
2023/11/01 05:52:11;;;;;;;12.90;9.52;;;;;;;;;;6235128;28;20057;-68
2023/11/01 05:55:15;;;;;;;10.05;5.72;;;;;;;;;;6236989;28;20434;-69
2023/11/01 05:58:31;;;;;;;11.02;8.07;;;;;;;;;;6236174;28;20041;-68
2023/11/01 06:01:33;;;;;;;17.08;10.30;;;;;;;;;;6247187;28;20056;-69
2023/11/01 06:04:35;;;;;;;42.78;32.70;;;;;;;;;;6237333;28;20080;-69
2023/11/01 06:07:37;;;;;;;11.18;8.40;;;;;;;;;;6235264;28;20049;-68
2023/11/01 06:10:41;;;;;;;11.45;6.72;;;;;;;;;;6230080;28;20408;-69
2023/11/01 06:13:43;;;;;;;8.27;7.20;;;;;;;;;;6232433;28;20054;-69
2023/11/01 06:16:46;;;;;;;9.90;7.50;;;;;;;;;;6234902;28;20049;-68
2023/11/01 06:19:48;;;;;;;9.98;8.05;;;;;;;;;;6236989;28;20045;-68
2023/11/01 06:22:51;;;;;;;9.40;7.72;;;;;;;;;;6237795;28;20132;-68
2023/11/01 06:25:52;;;;;;;12.40;8.55;;;;;;;;;;6237073;28;20068;-68
2023/11/01 06:28:54;;;;;;;11.73;7.53;;;;;;;;;;6214150;28;20111;-67
2023/11/01 06:31:56;;;;;;;11.55;8.10;;;;;;;;;;6236998;28;20044;-67
2023/11/01 06:34:59;;;;;;;9.32;7.60;;;;;;;;;;6235609;28;20590;-68
2023/11/01 06:38:01;;;;;;;10.73;9.10;;;;;;;;;;6236668;28;20052;-67
2023/11/01 06:41:04;;;;;;;11.50;6.00;;;;;;;;;;6229176;28;20088;-68
2023/11/01 06:44:07;;;;;;;10.50;7.80;;;;;;;;;;6236109;28;20430;-67
2023/11/01 06:47:09;;;;;;;16.60;6.20;;;;;;;;;;6236046;28;20041;-68
2023/11/01 06:50:11;;;;;;;9.50;7.38;;;;;;;;;;6236498;28;20146;-68
2023/11/01 06:53:13;;;;;;;10.73;8.18;;;;;;;;;;6232356;28;20054;-71
2023/11/01 06:56:15;;;;;;;9.80;7.20;;;;;;;;;;6234590;28;20765;-70
2023/11/01 06:59:17;;;;;;;11.85;6.85;;;;;;;;;;6234605;28;20042;-70
2023/11/01 07:02:19;;;;;;;14.05;4.80;;;;;;;;;;6218249;28;20056;-69
2023/11/01 07:05:21;;;;;;;11.68;10.38;;;;;;;;;;6234654;28;20053;-69
2023/11/01 07:08:23;;;;;;;7.68;5.07;;;;;;;;;;6235117;28;20558;-68
2023/11/01 07:11:25;;;;;;;11.40;7.15;;;;;;;;;;6232250;28;20049;-68
2023/11/01 07:14:27;;;;;;;9.38;7.28;;;;;;;;;;6234564;28;20856;-69
2023/11/01 07:17:29;;;;;;;11.23;5.30;;;;;;;;;;6234979;28;20041;-69
2023/11/01 07:20:32;;;;;;;10.02;6.10;;;;;;;;;;6234077;28;20367;-69
2023/11/01 07:23:34;;;;;;;10.55;5.15;;;;;;;;;;6234688;28;20045;-69
2023/11/01 07:26:36;;;;;;;8.80;5.45;;;;;;;;;;6232342;28;20446;-69
2023/11/01 07:29:38;;;;;;;7.80;5.03;;;;;;;;;;6217327;28;20052;-69
2023/11/01 07:32:40;;;;;;;9.52;7.50;;;;;;;;;;6217809;28;20150;-69
2023/11/01 07:35:43;;;;;;;7.40;6.55;;;;;;;;;;6235038;28;20140;-69
2023/11/01 07:38:47;;;;;;;8.40;5.15;;;;;;;;;;6235657;28;20815;-68
2023/11/01 07:41:49;;;;;;;10.45;7.68;;;;;;;;;;6236819;28;20053;-70
2023/11/01 07:44:52;;;;;;;7.70;5.90;;;;;;;;;;6236244;28;20132;-70
2023/11/01 07:47:54;;;;;;;8.98;6.93;;;;;;;;;;6236608;28;20049;-70
2023/11/01 07:50:57;;;;;;;9.30;7.28;;;;;;;;;;6235842;28;20561;-70
2023/11/01 07:53:59;;;;;;;10.25;4.97;;;;;;;;;;6236238;28;20156;-70
2023/11/01 07:57:01;;;;;;;9.70;6.13;;;;;;;;;;6234028;28;20038;-70
2023/11/01 08:00:05;;;;;;;9.48;7.82;;;;;;;;;;6233418;28;20132;-69
2023/11/01 08:03:07;;;;;;;11.30;6.45;;;;;;;;;;6236465;28;20522;-70
2023/11/01 08:06:09;;;;;;;7.90;5.60;;;;;;;;;;6233659;28;20526;-69
2023/11/01 08:09:11;;;;;;;8.80;6.75;;;;;;;;;;6233855;28;20057;-69
2023/11/01 08:12:13;;;;;;;8.65;7.50;;;;;;;;;;6239373;28;20227;-69
2023/11/01 08:15:15;;;;;;;10.23;6.72;;;;;;;;;;6235152;28;20069;-70
2023/11/01 08:18:18;;;;;;;15.73;6.70;;;;;;;;;;6239472;28;20111;-69
2023/11/01 08:21:20;;;;;;;10.00;6.88;;;;;;;;;;6239692;28;20041;-69
2023/11/01 08:24:22;;;;;;;11.70;6.20;;;;;;;;;;6240101;28;20049;-69
2023/11/01 08:27:24;;;;;;;8.25;6.05;;;;;;;;;;6240134;28;20041;-69
2023/11/01 08:30:26;;;;;;;8.65;6.60;;;;;;;;;;6239739;28;20052;-70
2023/11/01 08:33:28;;;;;;;9.55;5.13;;;;;;;;;;6231080;28;20084;-69
2023/11/01 08:36:30;;;;;;;12.45;6.30;;;;;;;;;;6239519;28;20071;-69
2023/11/01 08:39:32;;;;;;;10.63;5.82;;;;;;;;;;6239923;28;20049;-69
2023/11/01 08:42:34;;;;;;;8.40;7.40;;;;;;;;;;6239036;28;20252;-69
2023/11/01 08:45:37;;;;;;;10.02;6.55;;;;;;;;;;6239619;28;20104;-69
2023/11/01 08:48:39;;;;;;;8.27;4.50;;;;;;;;;;6239523;28;20110;-68
2023/11/01 08:51:41;;;;;;;8.73;5.97;;;;;;;;;;6238383;28;20053;-69
2023/11/01 08:54:43;;;;;;;9.73;5.03;;;;;;;;;;6237608;28;20120;-69
2023/11/01 08:57:45;;;;;;;10.02;6.90;;;;;;;;;;6234947;28;20056;-69
2023/11/01 09:00:47;;;;;;;9.52;6.63;;;;;;;;;;6224595;28;20049;-68
2023/11/01 09:03:50;;;;;;;7.85;7.00;;;;;;;;;;6239333;28;20450;-68
2023/11/01 09:06:52;;;;;;;7.00;3.58;;;;;;;;;;6238979;28;20407;-68
2023/11/01 09:09:54;;;;;;;5.53;3.58;;;;;;;;;;6230366;28;20558;-69
2023/11/01 09:13:00;;;;;;;9.25;6.75;;;;;;;;;;6233482;28;20054;-68
2023/11/01 09:16:02;;;;;;;6.82;5.35;;;;;;;;;;6219883;28;20037;-68
2023/11/01 09:19:07;;;;;;;6.85;6.10;;;;;;;;;;6215202;28;20053;-68
2023/11/01 09:22:09;;;;;;;6.93;6.22;;;;;;;;;;6217622;28;20049;-69
2023/11/01 09:25:11;;;;;;;4.90;2.38;;;;;;;;;;6238687;28;20049;-69
2023/11/01 09:28:13;;;;;;;5.85;1.95;;;;;;;;;;6238189;28;20045;-69
2023/11/01 09:31:15;;;;;;;6.10;4.82;;;;;;;;;;6234389;28;20052;-69
2023/11/01 09:34:21;;;;;;;3.63;2.88;;;;;;;;;;6238029;28;20107;-69
2023/11/01 09:37:26;;;;;;;3.42;1.30;;;;;;;;;;6238568;28;20549;-68
2023/11/01 09:40:28;;;;;;;4.70;1.20;;;;;;;;;;6218690;28;20045;-68
2023/11/01 09:43:31;;;;;;;3.80;3.25;;;;;;;;;;6220813;28;20064;-68
2023/11/01 09:46:35;;;;;;;4.25;2.42;;;;;;;;;;6211475;28;20380;-69
2023/11/01 09:49:38;;;;;;;5.95;5.28;;;;;;;;;;6216709;28;20045;-68
2023/11/01 09:52:42;;;;;;;6.28;3.60;;;;;;;;;;6204474;28;20077;-69
2023/11/01 09:55:44;;;;;;;7.53;6.82;;;;;;;;;;6234472;28;20554;-69
2023/11/01 09:58:46;;;;;;;9.75;8.65;;;;;;;;;;6237409;28;20062;-69
2023/11/01 10:01:50;;;;;;;;;;;;;;;;;;6238519;28;20041;-69
2023/11/01 10:04:53;;;;;;;8.55;6.43;;;;;;;;;;6237162;28;19925;-69
2023/11/01 10:07:56;;;;;;;11.50;7.03;;;;;;;;;;6218396;28;20529;-68
2023/11/01 10:11:02;;;;;;;11.68;5.85;;;;;;;;;;6228236;28;20056;-69
2023/11/01 10:14:04;;;;;;;9.38;7.53;;;;;;;;;;6214609;28;20438;-68
2023/11/01 10:17:07;;;;;;;8.93;8.07;;;;;;;;;;6237105;28;20060;-69
2023/11/01 10:20:23;;;;;;;10.05;9.05;;;;;;;;;;6210117;28;20041;-68
2023/11/01 10:23:27;;;;;;;10.85;9.75;;;;;;;;;;6234204;28;20141;-68
2023/11/01 10:26:31;;;;;;;9.93;5.80;;;;;;;;;;6237096;28;20617;-68
2023/11/01 10:29:43;;;;;;;9.95;6.03;;;;;;;;;;6234953;28;20497;-69
2023/11/01 10:32:56;;;;;;;8.95;7.97;;;;;;;;;;6235866;28;20045;-68
2023/11/01 10:36:01;;;;;;;10.32;8.13;;;;;;;;;;6237646;28;20060;-68
2023/11/01 10:39:04;;;;;;;8.95;7.65;;;;;;;;;;6234932;28;20038;-67
2023/11/01 10:42:08;;;;;;;11.57;9.90;;;;;;;;;;6233820;28;20049;-68
2023/11/01 10:45:10;;;;;;;10.30;9.23;;;;;;;;;;6234699;28;20089;-67
2023/11/01 10:48:12;;;;;;;8.23;4.32;;;;;;;;;;6231796;28;20534;-68
2023/11/01 10:51:15;;;;;;;9.73;8.68;;;;;;;;;;6235280;28;20057;-68
2023/11/01 10:54:19;;;;;;;7.22;4.93;;;;;;;;;;6218812;28;20057;-69
2023/11/01 10:57:24;;;;;;;6.47;4.53;;;;;;;;;;6219366;28;20098;-68
2023/11/01 11:00:35;;;;;;;7.32;6.53;;;;;;;;;;6236886;28;20049;-68
2023/11/01 11:03:46;;;;;;;11.18;5.25;;;;;;;;;;6234883;28;20081;-68
2023/11/01 11:06:53;;;;;;;7.22;3.75;;;;;;;;;;6229414;28;20072;-68
2023/11/01 11:10:23;;;;;;;9.13;7.03;;;;;;;;;;6234595;28;20049;-68
2023/11/01 11:13:26;;;;;;;9.25;4.90;;;;;;;;;;6230888;28;20065;-68
2023/11/01 11:17:21;;;;;;;7.32;5.72;;;;;;;;;;6234617;28;20158;-68
2023/11/01 11:20:29;;;;;;;9.68;5.97;;;;;;;;;;6176480;28;20091;-69
2023/11/01 11:23:32;;;;;;;5.95;4.10;;;;;;;;;;6236829;28;20130;-68
2023/11/01 11:26:38;;;;;;;5.53;4.82;;;;;;;;;;6236650;28;20049;-67
2023/11/01 11:29:45;;;;;;;5.72;3.47;;;;;;;;;;6236678;28;20041;-68
2023/11/01 11:33:05;;;;;;;7.97;2.90;;;;;;;;;;6236046;28;20060;-67
2023/11/01 11:36:24;;;;;;;8.57;5.30;;;;;;;;;;6234820;28;20052;-68
2023/11/01 11:39:53;;;;;;;5.78;3.70;;;;;;;;;;6215890;28;20053;-68
2023/11/01 11:42:55;;;;;;;7.95;5.38;;;;;;;;;;6232679;28;20052;-68
2023/11/01 11:46:28;;;;;;;8.30;5.90;;;;;;;;;;6240083;28;20049;-67
2023/11/01 11:49:32;;;;;;;8.75;3.97;;;;;;;;;;6236751;28;20041;-68
2023/11/01 11:52:35;;;;;;;5.63;3.63;;;;;;;;;;6241130;28;20135;-67
2023/11/01 11:55:46;;;;;;;7.93;5.00;;;;;;;;;;6241099;28;20061;-68
2023/11/01 11:58:49;;;;;;;8.55;5.63;;;;;;;;;;6240523;28;20054;-67
2023/11/01 12:01:52;;;;;;;5.55;3.15;;;;;;;;;;6239360;28;20524;-67
2023/11/01 12:04:55;;;;;;;6.10;5.50;;;;;;;;;;6240873;28;20042;-68
2023/11/01 12:07:57;;;;;;;6.35;2.83;;;;;;;;;;6223112;28;20065;-68
2023/11/01 12:10:59;;;;;;;8.43;7.55;;;;;;;;;;6237316;28;20057;-68
2023/11/01 12:14:01;;;;;;;5.43;3.38;;;;;;;;;;6221442;28;20765;-67
2023/11/01 12:17:03;;;;;;;5.07;3.40;;;;;;;;;;6239737;28;20134;-68
2023/11/01 12:20:06;;;;;;;6.90;4.57;;;;;;;;;;6238114;28;20087;-68
2023/11/01 12:23:08;;;;;;;7.55;5.35;;;;;;;;;;6238109;28;20502;-68
2023/11/01 12:26:10;;;;;;;9.52;5.20;;;;;;;;;;6236930;28;20065;-67
2023/11/01 12:29:12;;;;;;;6.35;5.07;;;;;;;;;;6236313;28;20056;-68
2023/11/01 12:32:19;;;;;;;6.22;4.35;;;;;;;;;;6240229;28;20045;-68
2023/11/01 12:35:21;;;;;;;7.00;4.65;;;;;;;;;;6238875;28;20467;-65
2023/11/01 12:38:23;;;;;;;6.35;4.20;;;;;;;;;;6239584;28;20160;-65
2023/11/01 12:41:26;;;;;;;6.35;2.70;;;;;;;;;;6239166;28;20144;-68
2023/11/01 12:44:30;;;;;;;9.00;4.90;;;;;;;;;;6239518;28;20140;-67
2023/11/01 12:47:39;;;;;;;7.75;4.32;;;;;;;;;;6240076;28;20045;-67
2023/11/01 12:50:42;;;;;;;7.28;2.35;;;;;;;;;;6215545;28;20146;-67
2023/11/01 12:53:44;;;;;;;4.93;2.35;;;;;;;;;;6234230;28;20071;-68
2023/11/01 12:56:46;;;;;;;4.55;2.40;;;;;;;;;;6239277;28;20104;-68
2023/11/01 12:59:48;;;;;;;4.75;1.95;;;;;;;;;;6234329;28;20046;-67
2023/11/01 13:02:50;;;;;;;5.50;4.00;;;;;;;;;;6235088;28;20046;-67
2023/11/01 13:05:52;;;;;;;3.05;1.70;;;;;;;;;;6240911;28;20053;-67
2023/11/01 13:08:55;;;;;;;4.28;3.88;;;;;;;;;;6241762;28;20057;-67
2023/11/01 13:11:57;;;;;;;4.05;2.65;;;;;;;;;;6241358;28;20056;-66
2023/11/01 13:14:59;;;;;;;6.80;3.72;;;;;;;;;;6234694;28;20050;-67
2023/11/01 13:18:01;;;;;;;4.47;3.20;;;;;;;;;;6239778;28;20513;-67
2023/11/01 13:21:04;;;;;;;8.38;4.00;;;;;;;;;;6239170;28;20124;-68
2023/11/01 13:24:07;;;;;;;6.10;3.72;;;;;;;;;;6221925;28;20559;-68
2023/11/01 13:27:09;;;;;;;3.50;1.98;;;;;;;;;;6229285;28;20459;-68
2023/11/01 13:30:12;;;;;;;3.35;3.05;;;;;;;;;;6238980;28;20053;-67
2023/11/01 13:33:15;;;;;;;5.78;4.43;;;;;;;;;;6238634;28;20064;-68
2023/11/01 13:36:17;;;;;;;5.03;2.63;;;;;;;;;;6238757;28;20799;-68
2023/11/01 13:39:19;;;;;;;3.60;1.73;;;;;;;;;;6242438;28;20808;-68
2023/11/01 13:42:21;;;;;;;4.57;2.83;;;;;;;;;;6237902;28;20056;-68
2023/11/01 13:45:23;;;;;;;3.20;2.13;;;;;;;;;;6238575;28;20053;-66
2023/11/01 13:48:25;;;;;;;6.50;3.38;;;;;;;;;;6238676;28;20123;-68
2023/11/01 13:51:27;;;;;;;5.53;2.05;;;;;;;;;;6237735;28;20053;-67
2023/11/01 13:54:29;;;;;;;3.83;3.00;;;;;;;;;;6218577;28;20053;-67
2023/11/01 13:57:31;;;;;;;5.00;3.15;;;;;;;;;;6238190;28;20056;-66
2023/11/01 14:00:33;;;;;;;4.05;2.28;;;;;;;;;;6237302;28;20195;-67
2023/11/01 14:03:36;;;;;;;5.80;2.13;;;;;;;;;;6237533;28;20056;-67
2023/11/01 14:06:39;;;;;;;8.02;2.05;;;;;;;;;;6230436;28;20045;-67
2023/11/01 14:09:43;;;;;;;3.42;1.70;;;;;;;;;;6236947;28;20136;-67
2023/11/01 14:12:47;;;;;;;5.55;3.72;;;;;;;;;;6237309;28;20045;-68
2023/11/01 14:15:50;;;;;;;5.30;2.20;;;;;;;;;;6237621;28;20060;-68
2023/11/01 14:18:53;;;;;;;5.68;2.38;;;;;;;;;;6237848;28;20060;-67
2023/11/01 14:21:57;;;;;;;3.20;1.40;;;;;;;;;;6237188;28;20494;-67
2023/11/01 14:25:01;;;;;;;5.72;2.08;;;;;;;;;;6237513;28;20076;-67
2023/11/01 14:28:03;;;;;;;4.32;2.70;;;;;;;;;;6238033;28;20034;-68
2023/11/01 14:31:05;;;;;;;4.60;3.08;;;;;;;;;;6238110;28;20049;-67
2023/11/01 14:34:07;;;;;;;7.05;3.72;;;;;;;;;;6237982;28;20474;-68
2023/11/01 14:37:09;;;;;;;4.72;3.40;;;;;;;;;;6237412;28;20049;-67
2023/11/01 14:40:12;;;;;;;4.93;2.35;;;;;;;;;;6237517;28;20056;-68
2023/11/01 14:43:14;;;;;;;7.22;4.50;;;;;;;;;;6238732;28;20057;-67
2023/11/01 14:46:16;;;;;;;3.97;1.95;;;;;;;;;;6237666;28;20046;-68
2023/11/01 14:49:18;;;;;;;3.95;1.60;;;;;;;;;;6237605;28;20450;-66
2023/11/01 14:52:21;;;;;;;6.72;3.72;;;;;;;;;;6232401;28;20082;-67
2023/11/01 14:55:23;;;;;;;6.13;3.60;;;;;;;;;;6236884;28;20056;-66
2023/11/01 14:58:25;;;;;;;4.57;3.72;;;;;;;;;;6236938;28;20546;-67
2023/11/01 15:01:27;;;;;;;5.00;3.28;;;;;;;;;;6230098;28;20519;-67
2023/11/01 15:04:31;;;;;;;7.82;1.85;;;;;;;;;;6236597;28;20042;-66
2023/11/01 15:07:33;;;;;;;5.97;3.80;;;;;;;;;;6237045;28;20057;-67
2023/11/01 15:10:35;;;;;;;5.20;4.70;;;;;;;;;;6237253;28;20434;-69
2023/11/01 15:13:37;;;;;;;9.32;5.88;;;;;;;;;;6232608;28;20475;-68
2023/11/01 15:16:39;;;;;;;20.80;10.23;;;;;;;;;;6236722;28;20045;-68
2023/11/01 15:19:43;;;;;;;13.80;6.35;;;;;;;;;;6236168;28;20041;-68
2023/11/01 15:22:45;;;;;;;7.90;4.28;;;;;;;;;;6236022;28;20434;-68
2023/11/01 15:25:47;;;;;;;7.43;5.28;;;;;;;;;;6236254;28;20051;-68
2023/11/01 15:28:49;;;;;;;37.00;21.52;;;;;;;;;;6236443;28;20049;-67
2023/11/01 15:31:53;;;;;;;18.33;12.80;;;;;;;;;;6229956;28;20103;-68
2023/11/01 15:34:55;;;;;;;13.80;8.63;;;;;;;;;;6233691;28;20052;-68
2023/11/01 15:37:58;;;;;;;13.90;7.30;;;;;;;;;;6230357;28;20064;-67
2023/11/01 15:41:01;;;;;;;28.33;18.92;;;;;;;;;;6229949;28;20069;-66
2023/11/01 15:44:03;;;;;;;21.77;13.68;;;;;;;;;;6226988;28;20057;-68
2023/11/01 15:47:06;;;;;;;12.15;10.80;;;;;;;;;;6232174;28;20111;-66
2023/11/01 15:50:08;;;;;;;8.18;6.25;;;;;;;;;;6183854;28;20038;-67
2023/11/01 15:53:10;;;;;;;11.23;9.18;;;;;;;;;;6213725;28;20208;-67
2023/11/01 15:56:14;;;;;;;26.45;14.80;;;;;;;;;;6232359;28;20497;-66
2023/11/01 15:59:17;;;;;;;30.38;22.05;;;;;;;;;;6233838;28;20083;-66
2023/11/01 16:02:19;;;;;;;61.35;38.90;;;;;;;;;;6234525;28;20177;-67
2023/11/01 16:05:21;;;;;;;20.17;16.42;;;;;;;;;;6205809;28;20042;-65
2023/11/01 16:08:24;;;;;;;17.80;12.55;;;;;;;;;;6227857;28;20037;-67
2023/11/01 16:11:26;;;;;;;15.38;9.38;;;;;;;;;;6234888;28;20074;-68
2023/11/01 16:14:29;;;;;;;20.60;11.50;;;;;;;;;;6234845;28;20766;-68
2023/11/01 16:17:31;;;;;;;14.02;8.70;;;;;;;;;;6236040;28;20096;-75
2023/11/01 16:20:33;;;;;;;10.73;7.20;;;;;;;;;;6235703;28;20489;-69
2023/11/01 16:23:35;;;;;;;49.88;34.33;;;;;;;;;;6227553;28;20076;-70
2023/11/01 16:26:38;;;;;;;45.20;24.70;;;;;;;;;;6231608;28;20799;-71
2023/11/01 16:29:40;;;;;;;16.20;9.27;;;;;;;;;;6215835;28;20054;-73
2023/11/01 16:32:43;;;;;;;19.35;12.43;;;;;;;;;;6237979;28;20620;-71
2023/11/01 16:35:46;;;;;;;13.27;7.55;;;;;;;;;;6222950;28;20050;-72
2023/11/01 16:38:48;;;;;;;12.75;7.75;;;;;;;;;;6223635;28;20060;-67
2023/11/01 16:41:52;;;;;;;15.38;9.27;;;;;;;;;;6240317;28;20060;-67
2023/11/01 16:44:55;;;;;;;17.98;12.65;;;;;;;;;;6241645;28;20114;-67
2023/11/01 16:47:57;;;;;;;18.35;12.60;;;;;;;;;;6239719;28;20132;-66
2023/11/01 16:50:59;;;;;;;14.60;12.73;;;;;;;;;;6239928;28;20079;-72
2023/11/01 16:54:01;;;;;;;14.70;9.63;;;;;;;;;;6205341;28;20462;-77
2023/11/01 16:57:22;;;;;;;13.57;8.63;;;;;;;;;;6218871;28;20049;-72
2023/11/01 17:00:25;;;;;;;17.50;11.52;;;;;;;;;;6224689;28;20068;-71
2023/11/01 17:03:27;;;;;;;17.95;14.55;;;;;;;;;;6221092;28;20044;-65
2023/11/01 17:06:30;;;;;;;13.68;8.02;;;;;;;;;;6233508;28;20542;-71
2023/11/01 17:09:32;;;;;;;16.38;11.23;;;;;;;;;;6235754;28;20049;-71
2023/11/01 17:12:34;;;;;;;16.33;10.27;;;;;;;;;;6233070;28;20056;-69
2023/11/01 17:15:36;;;;;;;11.57;6.65;;;;;;;;;;6237313;28;20053;-72
2023/11/01 17:18:38;;;;;;;13.02;6.93;;;;;;;;;;6219269;28;20368;-73
2023/11/01 17:21:41;;;;;;;12.77;8.23;;;;;;;;;;6234497;28;20057;-71
2023/11/01 17:24:43;;;;;;;12.65;7.82;;;;;;;;;;6237419;28;20045;-72
2023/11/01 17:27:45;;;;;;;15.88;5.35;;;;;;;;;;6238015;28;20526;-72
2023/11/01 17:30:48;;;;;;;8.93;7.28;;;;;;;;;;6236028;28;20064;-71
2023/11/01 17:33:51;;;;;;;14.10;10.40;;;;;;;;;;6234285;28;20053;-69
2023/11/01 17:37:00;;;;;;;12.18;7.22;;;;;;;;;;6218335;28;20049;-69
2023/11/01 17:40:03;;;;;;;13.02;6.28;;;;;;;;;;6229025;28;20045;-64
2023/11/01 17:43:12;;;;;;;8.60;5.45;;;;;;;;;;6231133;28;20069;-64
2023/11/01 17:46:18;;;;;;;9.40;6.05;;;;;;;;;;6238017;28;20054;-64
2023/11/01 17:49:44;;;;;;;9.75;7.85;;;;;;;;;;6234847;28;20053;-65
2023/11/01 17:52:46;;;;;;;10.90;9.77;;;;;;;;;;6212620;28;20053;-65
2023/11/01 17:55:48;;;;;;;8.13;7.28;;;;;;;;;;6238405;28;20051;-65
2023/11/01 17:58:56;;;;;;;11.27;6.25;;;;;;;;;;6231677;28;20687;-65
2023/11/01 18:01:58;;;;;;;10.23;7.68;;;;;;;;;;6239323;28;20049;-65
2023/11/01 18:05:01;;;;;;;29.20;17.98;;;;;;;;;;6239016;28;20446;-64
2023/11/01 18:08:10;;;;;;;17.90;13.32;;;;;;;;;;6237019;28;20045;-64
2023/11/01 18:11:18;;;;;;;11.75;10.52;;;;;;;;;;6227410;28;20053;-64
2023/11/01 18:14:20;;;;;;;9.57;7.55;;;;;;;;;;6233535;28;20060;-64